Bonifay, FL (32425)

8:39 PM CDT on July 28, 2014 (GMT -0500)
APRSWXNET Bonifay FL US (ME2276) Elev 144 ft | 30.80 °N, 85.70 °W | Change Station

Current weather conditions updated 51 minutes ago

Clear
Clear
77 °F
Feels Like 78 °F
N
0
Wind Variable Wind from NE
Gusts 2.0 mph

Tomorrow is forecast to be Cooler than today.

Today
High -- | Low -- °F
--% Chance of Precip.
Yesterday
High -- | Low -- °F
Precip. -- in
5:57 AM 7:40 PM
Waxing Crescent, 4% visible
Pressure 29.83 in
Visibility 8.0 miles
Clouds Clear
Heat Index 78 °F
Dew Point 73 °F
Humidity 88%
Rainfall 0.00 in
Snow Depth Not available.
UV 0 out of 12
Pollen 4.30 out of 12
Air Quality Not available.
Flu Activity Not available.
METAR K1J0 290058Z AUTO 00000KT 8SM CLR 24/24 A2995 RMK AO2 RAE04B28 SLP101 T02440239 $

More Conditions Fewer Conditions

Pressure 29.83 in
Visibility 8.0 miles
Clouds Clear
Heat Index 78 °F
Dew Point 73 °F
Humidity 88%
Rainfall 0.00 in
Snow Depth Not available.
UV 0 out of 12
Pollen 4.30 out of 12
Air Quality Not available.
Flu Activity Not available.
METAR K1J0 290058Z AUTO 00000KT 8SM CLR 24/24 A2995 RMK AO2 RAE04B28 SLP101 T02440239 $

More Conditions Fewer Conditions

10-Day Weather Forecast

Almanac

Astronomy

Jul. 28, 2014 Rise Set
Actual Time 5:57 AM CDT 7:40 PM CDT
Civil Twilight 5:31 AM CDT 8:06 PM CDT
Nautical Twilight 4:59 AM CDT 8:38 PM CDT
Astronomical Twilight 4:25 AM CDT 9:11 PM CDT
Moon 7:28 AM CDT (7/28) 8:33 PM CDT (7/28)
Length of Visible Light 14h 35m
Length of Day
13h 42m
Tomorrow will be 1m 19s shorter.
Waxing Crescent, 4% of the Moon is Illuminated
Today
Waxing Crescent
Aug 3
First Quarter
Aug 10
Full
Aug 17
Last Quarter
Aug 25
New

Today's Extremes

State Highs State Lows

Community

WunderPhotos

Upload Photos

1,738,578 photos uploaded!

WunderBlogs® & News

Nearby

Snow Depth

Station Depth Elevation
No new snow has been reported.

Earthquake Activity

City Distance Mag. Time & Date
No recent earthquake activity has been reported nearby.
Minimum magnitude displayed is 2.5.

Coastal Water Temperatures

Place Temperature
No Stations Reporting

Nearby Weather Stations

Station Location Temp. Heat Index Dew Point Humidity Wind Precip. Elev Updated Type
APRSWXNET Bonifay FL , Caryville, FL 77 °F 78 °F 73 °F 88% NE  at  0 mph 0.00 in / hr 144 ft 7:48 PM CDT MADIS
Bob's Backyard Weather, Bonifay, FL 77.3 °F 79 °F 73 °F 88% ENE  at  0.0 mph 0.00 in / hr 131 ft 9:26 PM EDT Normal
County Rd. 85, Hartford, AL 75.2 °F 75 °F 71 °F 88% SW  at  3.4 mph 0.00 in / hr 290 ft 8:39 PM CDT Rapid Fire

Show More Stations Show Fewer Stations